
Distance (Route):
Temperature : -58.4°C
Humidity : 6.5%
Pressure : 0hPa| Receiver | Frames | First received | Last received |
|---|---|---|---|
| LZ4TU-5 | 137 | 2026-09-05 23:06:11 | 2026-09-06 00:55:58 |
| Receiver | Date | Latitude | Longitude | Direction | Speed | Altitude | Climb | Temperature | Humidity | Pressure | Voltage | Killtimer | Uptime | BKT | XDATA |
|---|---|---|---|---|---|---|---|---|---|---|---|---|---|---|---|
| LZ4TU-5 | 2026-09-06 00:55:58 | 9.82038 | -68.46525 | 0° | 0km/h | 617m | 0.0m/s | -58.4°C | 6.5% | 0hPa | 0V | 00:00:00 | 00:00:00 | 00:00:00 | |
| LZ4TU-5 | 2026-09-06 00:55:54 | 9.82038 | -68.46525 | 0° | 0km/h | 617m | 0.0m/s | -58.5°C | 6.6% | 0hPa | 0V | 00:00:00 | 00:00:00 | 00:00:00 | |
| LZ4TU-5 | 2026-09-06 00:53:32 | 9.82038 | -68.46525 | 0° | 0km/h | 617m | 0.0m/s | -56.3°C | 4.9% | 0hPa | 0V | 00:00:00 | 00:00:00 | 00:00:00 | |
| LZ4TU-5 | 2026-09-06 00:53:28 | 9.82038 | -68.46525 | 0° | 0km/h | 617m | 0.0m/s | -55.9°C | 4.7% | 0hPa | 0V | 00:00:00 | 00:00:00 | 00:00:00 | |
| LZ4TU-5 | 2026-09-06 00:50:58 | 9.82038 | -68.46525 | 0° | 0km/h | 617m | 0.0m/s | -50.5°C | 3.8% | 0hPa | 0V | 00:00:00 | 00:00:00 | 00:00:00 | |
| LZ4TU-5 | 2026-09-06 00:50:53 | 9.82038 | -68.46525 | 0° | 0km/h | 617m | 0.0m/s | -49.8°C | 3.7% | 0hPa | 0V | 00:00:00 | 00:00:00 | 00:00:00 | |
| LZ4TU-5 | 2026-09-06 00:49:15 | 8.77169 | -55.34894 | 0° | 0km/h | 493m | 0.0m/s | -46.6°C | 3.1% | 0hPa | 0V | 00:00:00 | 00:00:00 | 00:00:00 | |
| LZ4TU-5 | 2026-09-06 00:49:11 | 8.47662 | -57.05415 | 0° | 0km/h | 461m | 0.0m/s | -46.5°C | 3.2% | 0hPa | 0V | 00:00:00 | 00:00:00 | 00:00:00 | |
| LZ4TU-5 | 2026-09-06 00:45:07 | -55.22843 | -47.97819 | 0° | 0km/h | 14390m | 0.0m/s | -46.7°C | 1.3% | 0hPa | 0V | 00:00:00 | 00:00:00 | 00:00:00 | |
| LZ4TU-5 | 2026-09-06 00:43:06 | -64.63595 | -33.90382 | 0° | 0km/h | 17434m | 0.0m/s | -47.0°C | 1.1% | 0hPa | 0V | 00:00:00 | 00:00:00 | 00:00:00 | |
| LZ4TU-5 | 2026-09-06 00:43:01 | -64.61820 | -34.03104 | 0° | 0km/h | 17428m | 0.0m/s | -47.0°C | 3.3% | 0hPa | 0V | 00:00:00 | 00:00:00 | 00:00:00 | |
| LZ4TU-5 | 2026-09-06 00:35:16 | -30.12022 | -45.84651 | 0° | 0km/h | 5351m | 0.0m/s | -53.0°C | 3.0% | 0hPa | 0V | 00:00:00 | 00:00:00 | 00:00:00 | |
| LZ4TU-5 | 2026-09-06 00:35:11 | 25.06149 | 5.76614 | 0° | 0km/h | 3811m | 0.0m/s | -53.1°C | 1.2% | 0hPa | 0V | 00:00:00 | 00:00:00 | 00:00:00 | |
| LZ4TU-5 | 2026-09-06 00:32:40 | 44.11897 | 28.99556 | 0° | 0km/h | 27360m | 0.0m/s | -53.8°C | 1.2% | 0hPa | 0V | 00:00:00 | 00:00:00 | 00:00:00 | |
| LZ4TU-5 | 2026-09-06 00:32:36 | 44.11897 | 28.99556 | 0° | 0km/h | 27360m | 0.0m/s | -54.1°C | 1.2% | 0hPa | 0V | 00:00:00 | 00:00:00 | 00:00:00 | |
| LZ4TU-5 | 2026-09-06 00:32:32 | 44.11897 | 28.99556 | 0° | 0km/h | 27360m | 0.0m/s | -54.2°C | 1.2% | 0hPa | 0V | 00:00:00 | 00:00:00 | 00:00:00 | |
| LZ4TU-5 | 2026-09-06 00:32:28 | 44.11897 | 28.99556 | 0° | 0km/h | 27360m | 0.0m/s | -54.3°C | 1.3% | 0hPa | 0V | 00:00:00 | 00:00:00 | 00:00:00 | |
| LZ4TU-5 | 2026-09-06 00:30:50 | 44.36137 | 27.35819 | 95° | 24km/h | 22909m | 5.9m/s | -53.8°C | 1.3% | 0hPa | 0V | 00:00:00 | 00:00:00 | 00:00:00 | |
| LZ4TU-5 | 2026-09-06 00:30:45 | 44.36137 | 27.35778 | 82° | 18km/h | 22882m | 4.2m/s | -53.8°C | 1.3% | 0hPa | 0V | 00:00:00 | 00:00:00 | 00:00:00 | |
| LZ4TU-5 | 2026-09-06 00:28:54 | 44.35978 | 27.35355 | 113° | 11km/h | 22299m | 4.6m/s | -55.1°C | 1.4% | 0hPa | 0V | 00:00:00 | 00:00:00 | 00:00:00 | |
| LZ4TU-5 | 2026-09-06 00:28:49 | 44.35984 | 27.35333 | 116° | 18km/h | 22279m | 5.7m/s | -55.1°C | 1.4% | 0hPa | 0V | 00:00:00 | 00:00:00 | 00:00:00 | |
| LZ4TU-5 | 2026-09-06 00:27:18 | 44.35972 | 27.34461 | 76° | 35km/h | 21830m | 3.7m/s | -56.0°C | 1.5% | 0hPa | 0V | 00:00:00 | 00:00:00 | 00:00:00 | |
| LZ4TU-5 | 2026-09-06 00:27:12 | 44.35962 | 27.34410 | 66° | 27km/h | 21806m | 5.1m/s | -56.1°C | 1.5% | 0hPa | 0V | 00:00:00 | 00:00:00 | 00:00:00 | |
| LZ4TU-5 | 2026-09-06 00:25:32 | 44.35863 | 27.33827 | 110° | 16km/h | 21314m | 4.5m/s | -56.7°C | 1.6% | 0hPa | 0V | 00:00:00 | 00:00:00 | 00:00:00 | |
| LZ4TU-5 | 2026-09-06 00:23:58 | 44.35933 | 27.33112 | 92° | 16km/h | 20868m | 6.1m/s | -56.2°C | 1.5% | 0hPa | 0V | 00:00:00 | 00:00:00 | 00:00:00 | |
| LZ4TU-5 | 2026-09-06 00:23:53 | 44.35932 | 27.33093 | 105° | 9km/h | 20843m | 5.6m/s | -56.3°C | 1.6% | 0hPa | 0V | 00:00:00 | 00:00:00 | 00:00:00 | |
| LZ4TU-5 | 2026-09-06 00:22:24 | 44.35864 | 27.32518 | 71° | 26km/h | 20392m | 4.3m/s | -55.7°C | 1.5% | 0hPa | 0V | 00:00:00 | 00:00:00 | 00:00:00 | |
| LZ4TU-5 | 2026-09-06 00:22:20 | 44.35854 | 27.32481 | 72° | 29km/h | 20372m | 5.4m/s | -55.8°C | 1.5% | 0hPa | 0V | 00:00:00 | 00:00:00 | 00:00:00 | |
| LZ4TU-5 | 2026-09-06 00:20:40 | 44.35552 | 27.31699 | 63° | 24km/h | 19884m | 4.1m/s | -54.1°C | 1.4% | 0hPa | 0V | 00:00:00 | 00:00:00 | 00:00:00 | |
| LZ4TU-5 | 2026-09-06 00:20:35 | 44.35542 | 27.31670 | 65° | 15km/h | 19861m | 4.5m/s | -54.0°C | 1.4% | 0hPa | 0V | 00:00:00 | 00:00:00 | 00:00:00 | |
| LZ4TU-5 | 2026-09-06 00:18:52 | 44.35342 | 27.30526 | 81° | 57km/h | 19387m | 5.9m/s | -57.0°C | 1.7% | 0hPa | 0V | 00:00:00 | 00:00:00 | 00:00:00 | |
| LZ4TU-5 | 2026-09-06 00:18:47 | 44.35327 | 27.30423 | 80° | 62km/h | 19365m | 4.6m/s | -56.9°C | 1.8% | 0hPa | 0V | 00:00:00 | 00:00:00 | 00:00:00 | |
| LZ4TU-5 | 2026-09-06 00:17:05 | 44.34909 | 27.28943 | 69° | 37km/h | 18891m | 4.4m/s | -57.8°C | 1.8% | 0hPa | 0V | 00:00:00 | 00:00:00 | 00:00:00 | |
| LZ4TU-5 | 2026-09-06 00:17:00 | 44.34890 | 27.28877 | 73° | 44km/h | 18870m | 4.4m/s | -57.6°C | 1.8% | 0hPa | 0V | 00:00:00 | 00:00:00 | 00:00:00 | |
| LZ4TU-5 | 2026-09-06 00:15:21 | 44.34546 | 27.27669 | 75° | 27km/h | 18393m | 6.1m/s | -57.6°C | 1.8% | 0hPa | 0V | 00:00:00 | 00:00:00 | 00:00:00 | |
| LZ4TU-5 | 2026-09-06 00:15:17 | 44.34540 | 27.27626 | 71° | 27km/h | 18368m | 4.7m/s | -57.3°C | 1.8% | 0hPa | 0V | 00:00:00 | 00:00:00 | 00:00:00 | |
| LZ4TU-5 | 2026-09-06 00:13:26 | 44.34869 | 27.26275 | 114° | 51km/h | 17853m | 4.7m/s | -58.6°C | 1.9% | 0hPa | 0V | 00:00:00 | 00:00:00 | 00:00:00 | |
| LZ4TU-5 | 2026-09-06 00:13:22 | 44.34887 | 27.26208 | 110° | 53km/h | 17835m | 4.7m/s | -58.5°C | 2.0% | 0hPa | 0V | 00:00:00 | 00:00:00 | 00:00:00 | |
| LZ4TU-5 | 2026-09-06 00:11:50 | 44.35157 | 27.24358 | 91° | 62km/h | 17392m | 4.8m/s | -58.4°C | 2.2% | 0hPa | 0V | 00:00:00 | 00:00:00 | 00:00:00 | |
| LZ4TU-5 | 2026-09-06 00:11:47 | 44.35158 | 27.24271 | 91° | 64km/h | 17373m | 4.6m/s | -58.3°C | 2.2% | 0hPa | 0V | 00:00:00 | 00:00:00 | 00:00:00 | |
| LZ4TU-5 | 2026-09-06 00:09:36 | 44.35102 | 27.21665 | 99° | 60km/h | 16792m | 3.8m/s | -60.9°C | 2.9% | 0hPa | 0V | 00:00:00 | 00:00:00 | 00:00:00 | |
| LZ4TU-5 | 2026-09-06 00:09:31 | 44.35110 | 27.21558 | 97° | 60km/h | 16770m | 4.0m/s | -60.9°C | 3.0% | 0hPa | 0V | 00:00:00 | 00:00:00 | 00:00:00 | |
| LZ4TU-5 | 2026-09-06 00:07:51 | 44.35344 | 27.19404 | 104° | 75km/h | 16305m | 4.2m/s | -59.5°C | 3.0% | 0hPa | 0V | 00:00:00 | 00:00:00 | 00:00:00 | |
| LZ4TU-5 | 2026-09-06 00:07:46 | 44.35365 | 27.19280 | 103° | 73km/h | 16280m | 4.5m/s | -59.4°C | 3.0% | 0hPa | 0V | 00:00:00 | 00:00:00 | 00:00:00 | |
| LZ4TU-5 | 2026-09-06 00:06:10 | 44.35476 | 27.16518 | 93° | 78km/h | 15795m | 4.6m/s | -57.2°C | 2.7% | 0hPa | 0V | 00:00:00 | 00:00:00 | 00:00:00 | |
| LZ4TU-5 | 2026-09-06 00:06:03 | 44.35475 | 27.16381 | 88° | 78km/h | 15772m | 4.3m/s | -57.3°C | 2.9% | 0hPa | 0V | 00:00:00 | 00:00:00 | 00:00:00 | |
| LZ4TU-5 | 2026-09-06 00:04:21 | 44.35253 | 27.13626 | 86° | 84km/h | 15318m | 4.9m/s | -58.1°C | 3.4% | 0hPa | 0V | 00:00:00 | 00:00:00 | 00:00:00 | |
| LZ4TU-5 | 2026-09-06 00:04:17 | 44.35244 | 27.13506 | 85° | 88km/h | 15302m | 3.6m/s | -58.0°C | 3.4% | 0hPa | 0V | 00:00:00 | 00:00:00 | 00:00:00 | |
| LZ4TU-5 | 2026-09-06 00:02:53 | 44.35385 | 27.10511 | 90° | 102km/h | 14914m | 4.1m/s | -59.0°C | 3.9% | 0hPa | 0V | 00:00:00 | 00:00:00 | 00:00:00 | |
| LZ4TU-5 | 2026-09-06 00:02:49 | 44.35379 | 27.10343 | 88° | 89km/h | 14892m | 5.1m/s | -58.8°C | 4.0% | 0hPa | 0V | 00:00:00 | 00:00:00 | 00:00:00 | |
| LZ4TU-5 | 2026-09-06 00:01:00 | 44.35256 | 27.07128 | 90° | 93km/h | 14428m | 5.2m/s | -59.0°C | 3.9% | 0hPa | 0V | 00:00:00 | 00:00:00 | 00:00:00 | |
| LZ4TU-5 | 2026-09-06 00:00:54 | 44.35249 | 27.06965 | 86° | 91km/h | 14404m | 4.0m/s | -59.1°C | 4.0% | 0hPa | 0V | 00:00:00 | 00:00:00 | 00:00:00 | |
| LZ4TU-5 | 2026-09-05 23:59:02 | 44.35167 | 27.03914 | 113° | 89km/h | 13861m | 5.2m/s | -57.6°C | 8.7% | 0hPa | 0V | 00:00:00 | 00:00:00 | 00:00:00 | |
| LZ4TU-5 | 2026-09-05 23:58:57 | 44.35203 | 27.03775 | 110° | 84km/h | 13830m | 4.1m/s | -57.7°C | 9.5% | 0hPa | 0V | 00:00:00 | 00:00:00 | 00:00:00 | |
| LZ4TU-5 | 2026-09-05 23:57:13 | 44.36168 | 26.99427 | 101° | 126km/h | 13300m | 3.7m/s | -62.4°C | 35.8% | 0hPa | 0V | 00:00:00 | 00:00:00 | 00:00:00 | |
| LZ4TU-5 | 2026-09-05 23:57:10 | 44.36190 | 26.99251 | 102° | 126km/h | 13284m | 4.1m/s | -62.6°C | 36.1% | 0hPa | 0V | 00:00:00 | 00:00:00 | 00:00:00 | |
| LZ4TU-5 | 2026-09-05 23:55:29 | 44.36681 | 26.95614 | 105° | 89km/h | 12832m | 4.4m/s | -60.3°C | 37.0% | 0hPa | 0V | 00:00:00 | 00:00:00 | 00:00:00 | |
| LZ4TU-5 | 2026-09-05 23:55:24 | 44.36706 | 26.95462 | 101° | 84km/h | 12810m | 4.3m/s | -60.1°C | 38.1% | 0hPa | 0V | 00:00:00 | 00:00:00 | 00:00:00 | |
| LZ4TU-5 | 2026-09-05 23:53:42 | 44.37515 | 26.92941 | 121° | 86km/h | 12347m | 4.0m/s | -57.1°C | 34.1% | 0hPa | 0V | 00:00:00 | 00:00:00 | 00:00:00 | |
| LZ4TU-5 | 2026-09-05 23:53:38 | 44.37558 | 26.92837 | 120° | 84km/h | 12330m | 4.2m/s | -57.0°C | 33.7% | 0hPa | 0V | 00:00:00 | 00:00:00 | 00:00:00 | |
| LZ4TU-5 | 2026-09-05 23:51:58 | 44.38825 | 26.90352 | 131° | 93km/h | 11922m | 3.7m/s | -54.3°C | 27.1% | 0hPa | 0V | 00:00:00 | 00:00:00 | 00:00:00 | |
| LZ4TU-5 | 2026-09-05 23:51:54 | 44.38896 | 26.90228 | 129° | 86km/h | 11902m | 3.6m/s | -54.2°C | 26.8% | 0hPa | 0V | 00:00:00 | 00:00:00 | 00:00:00 | |
| LZ4TU-5 | 2026-09-05 23:50:08 | 44.40394 | 26.87552 | 131° | 95km/h | 11506m | 3.2m/s | -51.1°C | 20.5% | 0hPa | 0V | 00:00:00 | 00:00:00 | 00:00:00 | |
| LZ4TU-5 | 2026-09-05 23:50:02 | 44.40464 | 26.87420 | 125° | 91km/h | 11488m | 4.3m/s | -50.9°C | 20.3% | 0hPa | 0V | 00:00:00 | 00:00:00 | 00:00:00 | |
| LZ4TU-5 | 2026-09-05 23:48:15 | 44.41975 | 26.84425 | 121° | 97km/h | 11123m | 3.4m/s | -48.4°C | 16.7% | 0hPa | 0V | 00:00:00 | 00:00:00 | 00:00:00 | |
| LZ4TU-5 | 2026-09-05 23:48:10 | 44.42037 | 26.84278 | 122° | 99km/h | 11105m | 3.3m/s | -48.3°C | 16.7% | 0hPa | 0V | 00:00:00 | 00:00:00 | 00:00:00 | |
| LZ4TU-5 | 2026-09-05 23:46:30 | 44.43177 | 26.81082 | 112° | 106km/h | 10750m | 2.7m/s | -46.7°C | 26.6% | 0hPa | 0V | 00:00:00 | 00:00:00 | 00:00:00 | |
| LZ4TU-5 | 2026-09-05 23:46:25 | 44.43222 | 26.80908 | 109° | 104km/h | 10731m | 4.4m/s | -46.6°C | 26.3% | 0hPa | 0V | 00:00:00 | 00:00:00 | 00:00:00 | |
| LZ4TU-5 | 2026-09-05 23:45:02 | 44.43801 | 26.77916 | 104° | 110km/h | 10404m | 5.3m/s | -44.0°C | 30.0% | 0hPa | 0V | 00:00:00 | 00:00:00 | 00:00:00 | |
| LZ4TU-5 | 2026-09-05 23:44:56 | 44.43829 | 26.77729 | 101° | 111km/h | 10384m | 3.1m/s | -44.1°C | 0% | 0hPa | 0V | 00:00:00 | 00:00:00 | 00:00:00 | |
| LZ4TU-5 | 2026-09-05 23:43:29 | 44.44153 | 26.74473 | 98° | 108km/h | 10066m | 4.0m/s | -41.8°C | 46.4% | 0hPa | 0V | 00:00:00 | 00:00:00 | 00:00:00 | |
| LZ4TU-5 | 2026-09-05 23:43:24 | 44.44168 | 26.74288 | 97° | 106km/h | 10047m | 3.8m/s | -41.7°C | 47.1% | 0hPa | 0V | 00:00:00 | 00:00:00 | 00:00:00 | |
| LZ4TU-5 | 2026-09-05 23:41:57 | 44.44403 | 26.71243 | 100° | 99km/h | 9728m | 3.4m/s | -39.4°C | 59.9% | 0hPa | 0V | 00:00:00 | 00:00:00 | 00:00:00 | |
| LZ4TU-5 | 2026-09-05 23:40:26 | 44.44838 | 26.68158 | 104° | 97km/h | 9386m | 3.8m/s | -36.4°C | 56.8% | 0hPa | 0V | 00:00:00 | 00:00:00 | 00:00:00 | |
| LZ4TU-5 | 2026-09-05 23:40:21 | 44.44860 | 26.68023 | 103° | 97km/h | 9371m | 2.9m/s | -36.2°C | 57.2% | 0hPa | 0V | 00:00:00 | 00:00:00 | 00:00:00 | |
| LZ4TU-5 | 2026-09-05 23:38:58 | 44.45272 | 26.65309 | 103° | 93km/h | 9062m | 3.6m/s | -33.5°C | 53.3% | 0hPa | 0V | 00:00:00 | 00:00:00 | 00:00:00 | |
| LZ4TU-5 | 2026-09-05 23:37:38 | 44.45729 | 26.62794 | 107° | 91km/h | 8755m | 3.6m/s | -30.8°C | 45.1% | 0hPa | 0V | 00:00:00 | 00:00:00 | 00:00:00 | |
| LZ4TU-5 | 2026-09-05 23:37:33 | 44.45761 | 26.62645 | 108° | 86km/h | 8735m | 3.8m/s | -30.7°C | 44.7% | 0hPa | 0V | 00:00:00 | 00:00:00 | 00:00:00 | |
| LZ4TU-5 | 2026-09-05 23:36:04 | 44.46231 | 26.60053 | 102° | 82km/h | 8368m | 3.5m/s | -27.5°C | 39.0% | 0hPa | 0V | 00:00:00 | 00:00:00 | 00:00:00 | |
| LZ4TU-5 | 2026-09-05 23:36:00 | 44.46245 | 26.59938 | 101° | 84km/h | 8354m | 4.1m/s | -27.4°C | 38.7% | 0hPa | 0V | 00:00:00 | 00:00:00 | 00:00:00 | |
| LZ4TU-5 | 2026-09-05 23:34:45 | 44.46470 | 26.57766 | 101° | 80km/h | 8063m | 4.5m/s | -25.2°C | 5.2% | 0hPa | 0V | 00:00:00 | 00:00:00 | 00:00:00 | |
| LZ4TU-5 | 2026-09-05 23:34:39 | 44.46489 | 26.57624 | 102° | 80km/h | 8044m | 3.4m/s | -25.1°C | 5.2% | 0hPa | 0V | 00:00:00 | 00:00:00 | 00:00:00 | |
| LZ4TU-5 | 2026-09-05 23:33:02 | 44.46736 | 26.54973 | 87° | 80km/h | 7688m | 4.2m/s | -24.4°C | 96.5% | 0hPa | 0V | 00:00:00 | 00:00:00 | 00:00:00 | |
| LZ4TU-5 | 2026-09-05 23:32:57 | 44.46725 | 26.54836 | 86° | 77km/h | 7670m | 3.1m/s | -24.2°C | 96.6% | 0hPa | 0V | 00:00:00 | 00:00:00 | 00:00:00 | |
| LZ4TU-5 | 2026-09-05 23:31:13 | 44.46664 | 26.51974 | 92° | 80km/h | 7261m | 3.9m/s | -20.5°C | 77.8% | 0hPa | 0V | 00:00:00 | 00:00:00 | 00:00:00 | |
| LZ4TU-5 | 2026-09-05 23:31:08 | 44.46666 | 26.51834 | 91° | 78km/h | 7242m | 4.5m/s | -20.3°C | 76.4% | 0hPa | 0V | 00:00:00 | 00:00:00 | 00:00:00 | |
| LZ4TU-5 | 2026-09-05 23:29:57 | 44.46767 | 26.49797 | 98° | 86km/h | 6955m | 2.9m/s | -18.1°C | 72.5% | 0hPa | 0V | 00:00:00 | 00:00:00 | 00:00:00 | |
| LZ4TU-5 | 2026-09-05 23:29:52 | 44.46777 | 26.49649 | 97° | 82km/h | 6935m | 4.0m/s | -18.0°C | 73.0% | 0hPa | 0V | 00:00:00 | 00:00:00 | 00:00:00 | |
| LZ4TU-5 | 2026-09-05 23:28:44 | 44.46934 | 26.47698 | 95° | 80km/h | 6665m | 5.7m/s | -16.7°C | 27.3% | 0hPa | 0V | 00:00:00 | 00:00:00 | 00:00:00 | |
| LZ4TU-5 | 2026-09-05 23:28:40 | 44.46940 | 26.47556 | 94° | 84km/h | 6643m | 3.3m/s | -16.5°C | 27.4% | 0hPa | 0V | 00:00:00 | 00:00:00 | 00:00:00 | |
| LZ4TU-5 | 2026-09-05 23:27:30 | 44.46998 | 26.45686 | 93° | 71km/h | 6366m | 3.8m/s | -15.1°C | 36.2% | 0hPa | 0V | 00:00:00 | 00:00:00 | 00:00:00 | |
| LZ4TU-5 | 2026-09-05 23:27:25 | 44.47003 | 26.45561 | 95° | 71km/h | 6346m | 4.0m/s | -14.9°C | 38.1% | 0hPa | 0V | 00:00:00 | 00:00:00 | 00:00:00 | |
| LZ4TU-5 | 2026-09-05 23:26:18 | 44.47075 | 26.43903 | 95° | 71km/h | 6080m | 4.5m/s | -12.9°C | 23.3% | 0hPa | 0V | 00:00:00 | 00:00:00 | 00:00:00 | |
| LZ4TU-5 | 2026-09-05 23:26:13 | 44.47080 | 26.43775 | 96° | 71km/h | 6060m | 3.3m/s | -12.8°C | 22.8% | 0hPa | 0V | 00:00:00 | 00:00:00 | 00:00:00 | |
| LZ4TU-5 | 2026-09-05 23:24:37 | 44.47171 | 26.41460 | 90° | 62km/h | 5687m | 4.2m/s | -10.7°C | 43.0% | 0hPa | 0V | 00:00:00 | 00:00:00 | 00:00:00 | |
| LZ4TU-5 | 2026-09-05 23:24:32 | 44.47170 | 26.41347 | 91° | 66km/h | 5669m | 3.8m/s | -10.6°C | 46.4% | 0hPa | 0V | 00:00:00 | 00:00:00 | 00:00:00 | |
| LZ4TU-5 | 2026-09-05 23:23:32 | 44.47186 | 26.39959 | 89° | 64km/h | 5450m | 4.3m/s | -9.4°C | 68.5% | 0hPa | 0V | 00:00:00 | 00:00:00 | 00:00:00 | |
| LZ4TU-5 | 2026-09-05 23:23:27 | 44.47182 | 26.39843 | 87° | 66km/h | 5432m | 3.8m/s | -9.2°C | 68.6% | 0hPa | 0V | 00:00:00 | 00:00:00 | 00:00:00 | |
| LZ4TU-5 | 2026-09-05 23:22:26 | 44.47149 | 26.38480 | 87° | 64km/h | 5219m | 3.8m/s | -7.6°C | 74.7% | 0hPa | 0V | 00:00:00 | 00:00:00 | 00:00:00 | |
| LZ4TU-5 | 2026-09-05 23:22:22 | 44.47145 | 26.38387 | 87° | 66km/h | 5205m | 3.7m/s | -7.5°C | 75.2% | 0hPa | 0V | 00:00:00 | 00:00:00 | 00:00:00 | |
| LZ4TU-5 | 2026-09-05 23:21:20 | 44.47116 | 26.36963 | 89° | 64km/h | 4979m | 3.9m/s | -5.6°C | 56.0% | 0hPa | 0V | 00:00:00 | 00:00:00 | 00:00:00 | |
| LZ4TU-5 | 2026-09-05 23:20:15 | 44.47092 | 26.35488 | 92° | 62km/h | 4739m | 3.8m/s | -3.9°C | 67.9% | 0hPa | 0V | 00:00:00 | 00:00:00 | 00:00:00 | |
| LZ4TU-5 | 2026-09-05 23:20:11 | 44.47093 | 26.35377 | 91° | 64km/h | 4720m | 4.1m/s | -3.8°C | 68.6% | 0hPa | 0V | 00:00:00 | 00:00:00 | 00:00:00 | |
| LZ4TU-5 | 2026-09-05 23:19:09 | 44.47109 | 26.34058 | 90° | 57km/h | 4489m | 3.0m/s | -2.2°C | 43.2% | 0hPa | 0V | 00:00:00 | 00:00:00 | 00:00:00 | |
| LZ4TU-5 | 2026-09-05 23:19:04 | 44.47108 | 26.33956 | 90° | 58km/h | 4471m | 4.6m/s | -2.1°C | 44.3% | 0hPa | 0V | 00:00:00 | 00:00:00 | 00:00:00 | |
| LZ4TU-5 | 2026-09-05 23:18:06 | 44.47151 | 26.32892 | 99° | 53km/h | 4239m | 6.3m/s | -0.7°C | 52.1% | 0hPa | 0V | 00:00:00 | 00:00:00 | 00:00:00 | |
| LZ4TU-5 | 2026-09-05 23:18:02 | 44.47164 | 26.32817 | 106° | 57km/h | 4218m | 4.5m/s | -0.5°C | 0% | 0hPa | 0V | 00:00:00 | 00:00:00 | 00:00:00 | |
| LZ4TU-5 | 2026-09-05 23:17:16 | 44.47440 | 26.31701 | 116° | 66km/h | 3965m | 3.9m/s | 0.8°C | 70.0% | 0hPa | 0V | 00:00:00 | 00:00:00 | 00:00:00 | |
| LZ4TU-5 | 2026-09-05 23:16:06 | 44.47859 | 26.30377 | 116° | 69km/h | 3747m | 3.5m/s | 2.2°C | 0% | 0hPa | 0V | 00:00:00 | 00:00:00 | 00:00:00 | |
| LZ4TU-5 | 2026-09-05 23:16:01 | 44.47897 | 26.30268 | 116° | 69km/h | 3730m | 4.1m/s | 2.4°C | 0% | 0hPa | 0V | 00:00:00 | 00:00:00 | 00:00:00 | |
| LZ4TU-5 | 2026-09-05 23:15:06 | 44.48327 | 26.29053 | 118° | 69km/h | 3548m | 2.6m/s | 3.7°C | 0% | 0hPa | 0V | 00:00:00 | 00:00:00 | 00:00:00 | |
| LZ4TU-5 | 2026-09-05 23:15:01 | 44.48364 | 26.28949 | 118° | 68km/h | 3532m | 3.1m/s | 3.8°C | 0% | 0hPa | 0V | 00:00:00 | 00:00:00 | 00:00:00 | |
| LZ4TU-5 | 2026-09-05 23:14:06 | 44.48830 | 26.27831 | 125° | 57km/h | 3329m | 3.8m/s | 5.7°C | 0% | 0hPa | 0V | 00:00:00 | 00:00:00 | 00:00:00 | |
| LZ4TU-5 | 2026-09-05 23:14:01 | 44.48867 | 26.27735 | 112° | 69km/h | 3303m | 5.4m/s | 5.9°C | 0% | 0hPa | 0V | 00:00:00 | 00:00:00 | 00:00:00 | |
| LZ4TU-5 | 2026-09-05 23:13:05 | 44.49201 | 26.26620 | 116° | 66km/h | 3062m | 2.8m/s | 8.0°C | 0% | 0hPa | 0V | 00:00:00 | 00:00:00 | 00:00:00 | |
| LZ4TU-5 | 2026-09-05 23:13:01 | 44.49226 | 26.26543 | 111° | 57km/h | 3046m | 4.5m/s | 8.2°C | 0% | 0hPa | 0V | 00:00:00 | 00:00:00 | 00:00:00 | |
| LZ4TU-5 | 2026-09-05 23:12:05 | 44.49405 | 26.25442 | 102° | 51km/h | 2787m | 4.3m/s | 10.1°C | 0% | 0hPa | 0V | 00:00:00 | 00:00:00 | 00:00:00 | |
| LZ4TU-5 | 2026-09-05 23:12:01 | 44.49416 | 26.25370 | 103° | 53km/h | 2769m | 4.6m/s | 10.2°C | 0% | 0hPa | 0V | 00:00:00 | 00:00:00 | 00:00:00 | |
| LZ4TU-5 | 2026-09-05 23:11:05 | 44.49418 | 26.24422 | 87° | 46km/h | 2505m | 5.5m/s | 12.1°C | 0% | 0hPa | 0V | 00:00:00 | 00:00:00 | 00:00:00 | |
| LZ4TU-5 | 2026-09-05 23:11:01 | 44.49420 | 26.24352 | 94° | 51km/h | 2486m | 5.3m/s | 12.3°C | 0% | 0hPa | 0V | 00:00:00 | 00:00:00 | 00:00:00 | |
| LZ4TU-5 | 2026-09-05 23:10:05 | 44.49453 | 26.23467 | 94° | 47km/h | 2268m | 6.0m/s | 14.0°C | 0% | 0hPa | 0V | 00:00:00 | 00:00:00 | 00:00:00 | |
| LZ4TU-5 | 2026-09-05 23:10:01 | 44.49460 | 26.23405 | 105° | 40km/h | 2247m | 5.5m/s | 0°C | 0% | 0hPa | 0V | 00:00:00 | 00:00:00 | 00:00:00 | |
| LZ4TU-5 | 2026-09-05 23:09:05 | 44.49545 | 26.22630 | 97° | 33km/h | 2014m | 3.8m/s | 0°C | 0% | 0hPa | 0V | 00:00:00 | 00:00:00 | 00:00:00 | |
| LZ4TU-5 | 2026-09-05 23:09:01 | 44.49548 | 26.22579 | 95° | 40km/h | 1998m | 3.6m/s | 0°C | 0% | 0hPa | 0V | 00:00:00 | 00:00:00 | 00:00:00 | |
| LZ4TU-5 | 2026-09-05 23:08:05 | 44.49610 | 26.21877 | 115° | 38km/h | 1757m | 3.2m/s | 0°C | 0% | 0hPa | 0V | 00:00:00 | 00:00:00 | 00:00:00 | |
| LZ4TU-5 | 2026-09-05 23:08:02 | 44.49617 | 26.21825 | 90° | 38km/h | 1743m | 5.4m/s | 0°C | 0% | 0hPa | 0V | 00:00:00 | 00:00:00 | 00:00:00 | |
| LZ4TU-5 | 2026-09-05 23:07:04 | 44.49654 | 26.21300 | 98° | 26km/h | 1472m | 6.6m/s | 0°C | 0% | 0hPa | 0V | 00:00:00 | 00:00:00 | 00:00:00 | |
| LZ4TU-5 | 2026-09-05 23:06:58 | 44.49662 | 26.21259 | 92° | 24km/h | 1447m | 3.6m/s | 0°C | 0% | 0hPa | 0V | 00:00:00 | 00:00:00 | 00:00:00 | |
| LZ4TU-5 | 2026-09-05 23:06:53 | 44.49658 | 26.21219 | 95° | 20km/h | 1423m | 4.3m/s | 0°C | 0% | 0hPa | 0V | 00:00:00 | 00:00:00 | 00:00:00 | |
| LZ4TU-5 | 2026-09-05 23:06:49 | 44.49660 | 26.21191 | 90° | 18km/h | 1405m | 2.7m/s | 0°C | 0% | 0hPa | 0V | 00:00:00 | 00:00:00 | 00:00:00 | |
| LZ4TU-5 | 2026-09-05 23:06:44 | 44.49657 | 26.21144 | 82° | 27km/h | 1380m | 4.4m/s | 0°C | 0% | 0hPa | 0V | 00:00:00 | 00:00:00 | 00:00:00 | |
| LZ4TU-5 | 2026-09-05 23:06:38 | 44.49654 | 26.21099 | 87° | 16km/h | 1355m | 4.7m/s | 0°C | 0% | 0hPa | 0V | 00:00:00 | 00:00:00 | 00:00:00 | |
| LZ4TU-5 | 2026-09-05 23:06:31 | 44.49657 | 26.21039 | 95° | 29km/h | 1329m | 4.4m/s | 0°C | 0% | 0hPa | 0V | 00:00:00 | 00:00:00 | 00:00:00 | |
| LZ4TU-5 | 2026-09-05 23:06:26 | 44.49651 | 26.20995 | 80° | 26km/h | 1305m | 6.1m/s | 0°C | 0% | 0hPa | 0V | 00:00:00 | 00:00:00 | 00:00:00 | |
| LZ4TU-5 | 2026-09-05 23:06:21 | 44.49650 | 26.20953 | 96° | 29km/h | 1285m | 3.8m/s | 0°C | 0% | 0hPa | 0V | 00:00:00 | 00:00:00 | 00:00:00 | |
| LZ4TU-5 | 2026-09-05 23:06:15 | 44.49660 | 26.20903 | 94° | 20km/h | 1259m | 4.8m/s | 0°C | 0% | 0hPa | 0V | 00:00:00 | 00:00:00 | 00:00:00 | |
| LZ4TU-5 | 2026-09-05 23:06:11 | 44.49658 | 26.20864 | 81° | 22km/h | 1236m | 4.9m/s | 0°C | 0% | 0hPa | 0V | 00:00:00 | 00:00:00 | 00:00:00 |